createdAt,value
2022-10-06T00:01:21.996Z,11.10
2022-10-06T00:03:51.017Z,8.40
2022-10-06T00:06:20.134Z,9.20
2022-10-06T00:09:25.937Z,10.80
2022-10-06T00:11:56.694Z,7.70
2022-10-06T00:14:43.697Z,10.00
2022-10-06T00:17:15.587Z,8.70
2022-10-06T00:19:46.454Z,9.30
2022-10-06T00:22:15.549Z,13.90
2022-10-06T00:24:44.800Z,9.80
2022-10-06T00:27:14.046Z,9.20
2022-10-06T00:29:43.119Z,11.70
2022-10-06T00:32:12.292Z,8.40
2022-10-06T00:34:41.224Z,8.50
2022-10-06T00:37:10.304Z,8.50
2022-10-06T00:39:39.251Z,9.80
2022-10-06T00:42:29.916Z,10.80
2022-10-06T00:45:06.439Z,8.90
2022-10-06T00:47:35.864Z,14.00
2022-10-06T00:50:05.476Z,7.50
2022-10-06T00:52:35.333Z,9.70
2022-10-06T00:55:09.389Z,10.20
2022-10-06T00:57:40.713Z,8.20
2022-10-06T01:00:10.541Z,11.30
2022-10-06T01:02:51.057Z,9.30
2022-10-06T01:05:30.454Z,6.20
2022-10-06T01:07:59.980Z,9.40
2022-10-06T01:10:29.029Z,10.20
2022-10-06T01:12:58.302Z,10.00
2022-10-06T01:15:28.949Z,7.90
2022-10-06T01:18:09.949Z,11.30
2022-10-06T01:20:44.431Z,11.10
2022-10-06T01:23:13.695Z,9.30
2022-10-06T01:25:42.805Z,8.50
2022-10-06T01:28:14.091Z,13.80
2022-10-06T01:30:54.811Z,10.40
2022-10-06T01:33:25.481Z,8.70
2022-10-06T01:35:54.749Z,8.80
2022-10-06T01:38:25.153Z,15.30
2022-10-06T01:40:59.749Z,8.80
2022-10-06T01:43:28.731Z,8.10
2022-10-06T01:45:59.188Z,7.80
2022-10-06T01:48:28.594Z,11.40
2022-10-06T01:53:29.061Z,13.80
2022-10-06T01:55:59.971Z,16.50
2022-10-06T01:58:31.074Z,18.10
2022-10-06T02:01:10.037Z,19.60
2022-10-06T02:03:40.764Z,23.10
2022-10-06T02:08:40.343Z,19.70
2022-10-06T02:11:12.202Z,19.10
2022-10-06T02:13:44.163Z,17.80
2022-10-06T02:16:14.316Z,16.70
2022-10-06T02:18:44.970Z,16.50
2022-10-06T02:21:20.219Z,16.50
2022-10-06T02:23:49.369Z,15.20
2022-10-06T02:26:19.270Z,14.80
2022-10-06T02:28:52.159Z,14.80
2022-10-06T02:31:24.358Z,14.40
2022-10-06T02:33:54.385Z,15.80
2022-10-06T02:36:25.106Z,17.70
2022-10-06T02:38:54.605Z,16.40
2022-10-06T02:41:24.405Z,13.70
2022-10-06T02:43:55.325Z,13.60
2022-10-06T02:46:25.736Z,15.30
2022-10-06T02:48:55.216Z,12.60
2022-10-06T02:51:25.397Z,12.40
2022-10-06T02:53:55.141Z,14.00
2022-10-06T02:56:29.412Z,11.70
2022-10-06T02:58:59.539Z,13.30
2022-10-06T03:01:32.645Z,9.40
2022-10-06T03:04:06.211Z,10.70
2022-10-06T03:06:37.241Z,9.70
2022-10-06T03:09:10.694Z,11.90
2022-10-06T03:11:43.535Z,8.00
2022-10-06T03:14:21.363Z,11.00
2022-10-06T03:16:56.834Z,10.20
2022-10-06T03:19:28.269Z,10.50
2022-10-06T03:21:57.336Z,8.30
2022-10-06T03:24:37.497Z,10.00
2022-10-06T03:27:06.959Z,10.20
2022-10-06T03:29:36.163Z,10.10
2022-10-06T03:32:05.626Z,8.70
2022-10-06T03:34:35.874Z,8.10
2022-10-06T03:37:06.282Z,9.70
2022-10-06T03:39:35.752Z,9.40
2022-10-06T03:42:04.619Z,8.30
2022-10-06T03:44:35.571Z,8.30
2022-10-06T03:47:04.848Z,10.90
2022-10-06T03:49:34.568Z,6.90
2022-10-06T03:52:03.585Z,9.50
2022-10-06T03:54:36.263Z,7.40
2022-10-06T03:57:05.198Z,8.90
2022-10-06T03:59:34.885Z,7.50
2022-10-06T04:02:05.674Z,11.60
2022-10-06T04:04:38.767Z,12.40
2022-10-06T04:07:11.549Z,10.60
2022-10-06T04:09:41.374Z,9.20
2022-10-06T04:12:12.113Z,6.30
2022-10-06T04:14:41.947Z,12.20
2022-10-06T04:17:11.028Z,7.10
2022-10-06T04:19:42.107Z,8.10
2022-10-06T04:22:11.111Z,9.10
2022-10-06T04:24:40.289Z,12.30
2022-10-06T04:27:27.523Z,6.80
2022-10-06T04:30:15.423Z,9.00
2022-10-06T04:32:46.181Z,6.20
2022-10-06T04:35:15.492Z,8.60
2022-10-06T04:37:44.547Z,6.80
2022-10-06T04:40:13.834Z,7.10
2022-10-06T04:42:43.222Z,9.60
2022-10-06T04:45:16.008Z,8.90
2022-10-06T04:47:48.725Z,8.80
2022-10-06T04:50:18.573Z,9.00
2022-10-06T04:53:05.947Z,9.90
2022-10-06T04:55:35.026Z,12.40
2022-10-06T04:58:04.799Z,6.80
2022-10-06T05:00:34.041Z,15.90
2022-10-06T05:03:02.928Z,14.10
2022-10-06T05:05:32.025Z,7.40
2022-10-06T05:08:01.139Z,6.70
2022-10-06T05:10:30.946Z,6.00
2022-10-06T05:12:59.980Z,8.40
2022-10-06T05:15:29.267Z,8.60
2022-10-06T05:17:58.214Z,10.70
2022-10-06T05:20:28.529Z,6.20
2022-10-06T05:22:58.038Z,7.30
2022-10-06T05:25:29.774Z,9.40
2022-10-06T05:28:10.844Z,7.40
2022-10-06T05:30:58.051Z,7.30
2022-10-06T05:33:34.511Z,8.20
2022-10-06T05:36:18.766Z,8.10
2022-10-06T05:38:59.635Z,6.80
2022-10-06T05:41:42.668Z,8.00
2022-10-06T05:44:18.652Z,6.60
2022-10-06T05:46:54.192Z,7.20
2022-10-06T05:49:26.991Z,8.40
2022-10-06T05:51:59.791Z,5.00
2022-10-06T05:54:40.824Z,6.70
2022-10-06T06:01:56.403Z,7.20
2022-10-06T06:05:03.494Z,6.30
2022-10-06T06:08:28.045Z,8.10
2022-10-06T06:11:35.770Z,7.00
2022-10-06T06:15:25.350Z,7.90
2022-10-06T06:18:54.653Z,9.10
2022-10-06T06:27:13.240Z,6.80
2022-10-06T07:03:55.940Z,6.70
2022-10-06T07:06:32.414Z,7.00
2022-10-06T07:09:07.780Z,7.90
2022-10-06T07:11:43.276Z,8.00
2022-10-06T07:14:24.504Z,10.20
2022-10-06T07:17:15.696Z,9.10
2022-10-06T07:20:10.718Z,8.60
2022-10-06T07:22:59.846Z,6.80
2022-10-06T07:25:55.152Z,6.00
2022-10-06T07:28:56.366Z,7.80
2022-10-06T07:31:44.603Z,7.30
2022-10-06T07:34:28.938Z,9.80
2022-10-06T07:37:39.725Z,5.30
2022-10-06T07:40:34.030Z,6.90
2022-10-06T07:43:18.567Z,6.20
2022-10-06T07:46:28.707Z,6.50
2022-10-06T07:49:25.388Z,9.10
2022-10-06T07:52:13.146Z,6.30
2022-10-06T07:55:04.373Z,7.80
2022-10-06T07:58:17.768Z,11.60
2022-10-06T08:01:34.214Z,14.70
2022-10-06T08:04:22.036Z,15.60
2022-10-06T08:06:54.705Z,14.00
2022-10-06T08:09:27.581Z,10.80
2022-10-06T08:12:27.569Z,14.30
2022-10-06T08:22:38.858Z,4.80
2022-10-06T08:27:41.837Z,6.10
2022-10-06T08:29:59.619Z,6.50
2022-10-06T08:32:29.413Z,5.80
2022-10-06T08:37:37.965Z,16.30
2022-10-06T08:40:19.145Z,5.80
2022-10-06T08:43:08.322Z,5.90
2022-10-06T08:46:22.483Z,5.50
2022-10-06T08:49:35.724Z,7.10
2022-10-06T08:53:00.330Z,10.30
2022-10-06T08:56:11.020Z,9.70
2022-10-06T08:59:09.972Z,12.80
2022-10-06T09:02:52.780Z,6.20
2022-10-06T09:05:41.372Z,8.90
2022-10-06T09:09:48.676Z,7.50
2022-10-06T09:13:00.775Z,10.40
2022-10-06T09:20:25.194Z,5.00
2022-10-06T09:32:03.127Z,5.10
2022-10-06T09:35:05.923Z,4.90
2022-10-06T09:38:53.743Z,6.90
2022-10-06T09:42:21.115Z,5.50
2022-10-06T09:45:37.035Z,6.30
2022-10-06T09:48:46.951Z,10.40
2022-10-06T09:52:25.435Z,17.20
2022-10-06T09:55:16.154Z,21.30
2022-10-06T09:58:04.936Z,14.70
2022-10-06T10:01:02.376Z,8.60
2022-10-06T10:04:21.029Z,4.60
2022-10-06T10:07:29.766Z,6.20
2022-10-06T10:10:50.622Z,13.60
2022-10-06T10:14:06.181Z,7.70
2022-10-06T10:17:21.178Z,7.20
2022-10-06T10:20:35.502Z,5.50
2022-10-06T10:24:07.913Z,3.40
2022-10-06T10:27:20.300Z,3.50
2022-10-06T10:30:42.949Z,6.50
2022-10-06T10:33:26.977Z,8.90
2022-10-06T10:36:22.594Z,5.00
2022-10-06T10:39:00.299Z,4.40
2022-10-06T10:41:47.688Z,12.00
2022-10-06T10:45:07.198Z,11.20
2022-10-06T10:48:25.265Z,13.10
2022-10-06T10:51:45.369Z,8.30
2022-10-06T10:59:19.657Z,6.60
2022-10-06T11:02:45.537Z,5.40
2022-10-06T11:06:14.017Z,4.20
2022-10-06T11:13:16.516Z,8.40
2022-10-06T11:16:37.363Z,5.10
2022-10-06T11:29:27.386Z,5.90
2022-10-06T11:32:32.906Z,7.40
2022-10-06T11:35:15.352Z,7.60
2022-10-06T11:38:21.270Z,10.50
2022-10-06T11:41:36.976Z,8.40
2022-10-06T11:44:32.613Z,5.70
2022-10-06T11:47:45.980Z,11.30
2022-10-06T11:50:45.379Z,7.40
2022-10-06T11:53:37.274Z,6.20
2022-10-06T11:56:18.407Z,3.10
2022-10-06T11:59:30.382Z,8.50
2022-10-06T12:02:32.709Z,6.20
2022-10-06T12:05:35.651Z,8.20
2022-10-06T12:08:02.318Z,5.50
2022-10-06T12:10:32.660Z,8.90
2022-10-06T12:20:38.678Z,4.90
2022-10-06T12:24:02.853Z,6.40
2022-10-06T12:26:49.538Z,4.90
2022-10-06T12:30:26.586Z,3.80
2022-10-06T12:33:05.207Z,4.00
2022-10-06T12:35:42.642Z,4.50
2022-10-06T12:38:44.637Z,5.90
2022-10-06T12:41:16.465Z,2.50
2022-10-06T12:43:55.872Z,7.00
2022-10-06T12:47:06.237Z,8.10
2022-10-06T12:50:06.606Z,3.90
2022-10-06T12:52:56.482Z,5.60
2022-10-06T13:02:50.844Z,5.90
2022-10-06T13:09:13.468Z,6.60
2022-10-06T13:18:54.344Z,4.80
2022-10-06T13:29:37.833Z,3.50
2022-10-06T13:32:21.488Z,4.60
2022-10-06T13:35:26.534Z,7.70
2022-10-06T13:38:06.146Z,12.10
2022-10-06T13:41:13.688Z,3.60
2022-10-06T13:44:11.980Z,10.70
2022-10-06T13:47:40.306Z,8.30
2022-10-06T13:50:20.796Z,3.50
2022-10-06T13:56:52.161Z,8.50
2022-10-06T13:59:53.520Z,4.30
2022-10-06T14:03:02.094Z,3.50
2022-10-06T14:05:46.834Z,9.30
2022-10-06T14:08:33.933Z,4.40
2022-10-06T14:11:31.611Z,9.40
2022-10-06T14:14:12.114Z,6.50
2022-10-06T14:17:14.158Z,8.90
2022-10-06T14:20:45.068Z,3.50
2022-10-06T14:23:53.523Z,5.00
2022-10-06T14:29:50.006Z,5.70
2022-10-06T14:32:53.404Z,11.30
2022-10-06T14:35:59.987Z,4.90
2022-10-06T14:38:50.865Z,3.40
2022-10-06T14:42:05.787Z,4.50
2022-10-06T14:45:10.937Z,3.10
2022-10-06T14:48:21.683Z,5.10
2022-10-06T14:51:08.065Z,2.70
2022-10-06T14:53:46.070Z,3.60
2022-10-06T14:56:24.579Z,5.70
2022-10-06T14:59:15.230Z,3.50
2022-10-06T15:02:26.001Z,6.50
2022-10-06T15:05:07.617Z,6.90
2022-10-06T15:08:11.169Z,4.00
2022-10-06T15:10:53.551Z,5.40
2022-10-06T15:13:52.561Z,7.10
2022-10-06T15:16:33.486Z,7.90
2022-10-06T15:19:25.750Z,5.60
2022-10-06T15:22:13.849Z,7.60
2022-10-06T15:25:14.932Z,5.00
2022-10-06T15:28:25.046Z,6.40
2022-10-06T15:31:11.683Z,4.70
2022-10-06T15:33:57.352Z,6.50
2022-10-06T15:39:38.716Z,8.20
2022-10-06T15:42:16.907Z,8.10
2022-10-06T15:45:12.684Z,8.00
2022-10-06T15:48:28.209Z,6.10
2022-10-06T15:55:11.668Z,8.00
2022-10-06T15:57:57.573Z,6.30
2022-10-06T16:01:51.478Z,6.90
2022-10-06T16:05:30.107Z,7.40
2022-10-06T16:07:50.595Z,4.90
2022-10-06T16:10:42.916Z,8.20
2022-10-06T16:13:34.863Z,7.30
2022-10-06T16:20:14.377Z,6.50
2022-10-06T16:22:55.365Z,8.60
2022-10-06T16:26:07.363Z,6.20
2022-10-06T16:29:03.953Z,7.90
2022-10-06T16:31:59.397Z,9.20
2022-10-06T16:35:06.854Z,10.40
2022-10-06T16:37:57.918Z,12.40
2022-10-06T16:41:27.992Z,11.20
2022-10-06T16:43:50.609Z,13.00
2022-10-06T16:46:43.068Z,17.10
2022-10-06T16:49:47.060Z,21.80
2022-10-06T16:58:05.124Z,30.70
2022-10-06T17:04:34.494Z,17.70
2022-10-06T17:10:44.013Z,14.40
2022-10-06T17:14:00.958Z,22.70
2022-10-06T17:17:03.276Z,16.50
2022-10-06T17:20:07.634Z,19.00
2022-10-06T17:26:32.487Z,24.60
2022-10-06T17:30:26.838Z,28.40
2022-10-06T17:33:36.763Z,23.30
2022-10-06T17:36:55.156Z,27.30
2022-10-06T17:48:33.875Z,38.10
2022-10-06T18:44:17.878Z,42.60
2022-10-06T18:48:15.277Z,44.00
2022-10-06T18:52:28.908Z,47.80
2022-10-06T19:37:00.220Z,77.70
2022-10-06T19:40:27.795Z,77.50
2022-10-06T19:44:01.608Z,74.30
2022-10-06T19:47:17.436Z,94.60
2022-10-06T20:01:39.151Z,85.80
2022-10-06T20:25:30.545Z,85.80
2022-10-06T20:27:58.157Z,90.50
2022-10-06T20:40:04.886Z,99.40
2022-10-06T20:50:58.276Z,103.00
2022-10-06T20:53:43.654Z,99.10
2022-10-06T20:56:46.228Z,103.30
2022-10-06T21:04:08.038Z,97.80
2022-10-06T21:07:23.575Z,102.10
2022-10-06T21:10:33.343Z,94.00
2022-10-06T21:13:27.412Z,95.30
2022-10-06T21:17:44.336Z,94.00
2022-10-06T21:21:05.136Z,87.20
2022-10-06T21:28:37.536Z,92.20
2022-10-06T21:35:48.233Z,77.30
2022-10-06T21:38:28.871Z,77.70
2022-10-06T21:46:26.898Z,83.10
2022-10-06T22:00:18.715Z,76.70
2022-10-06T22:03:11.381Z,69.40
2022-10-06T22:05:57.692Z,68.00
2022-10-06T22:08:53.177Z,70.80
2022-10-06T22:11:41.693Z,67.90
2022-10-06T22:14:32.429Z,72.10
2022-10-06T22:17:18.951Z,69.00
2022-10-06T22:19:55.417Z,68.90
2022-10-06T22:22:42.272Z,64.60
2022-10-06T22:25:36.106Z,67.90
2022-10-06T22:28:21.033Z,65.00
2022-10-06T22:31:12.882Z,67.30
2022-10-06T22:34:14.036Z,61.50
2022-10-06T22:36:49.296Z,62.00
2022-10-06T22:39:32.094Z,65.60
2022-10-06T22:42:06.626Z,57.70
2022-10-06T22:44:50.292Z,59.50
2022-10-06T22:47:25.949Z,62.90
2022-10-06T22:50:25.349Z,59.80
2022-10-06T22:53:41.029Z,58.00
2022-10-06T22:56:21.703Z,64.10
2022-10-06T22:59:23.648Z,59.80
2022-10-06T23:02:22.471Z,65.10
2022-10-06T23:05:08.832Z,60.70
2022-10-06T23:08:40.241Z,56.00
2022-10-06T23:11:29.186Z,57.80
2022-10-06T23:14:34.176Z,61.70
2022-10-06T23:17:17.967Z,64.80
2022-10-06T23:20:18.611Z,61.70
2022-10-06T23:22:54.296Z,65.80
2022-10-06T23:25:32.070Z,61.60
2022-10-06T23:28:10.418Z,65.70
2022-10-06T23:31:12.138Z,62.00
2022-10-06T23:36:08.028Z,63.10
2022-10-06T23:37:40.021Z,63.30
2022-10-06T23:40:25.803Z,60.70
2022-10-06T23:43:37.988Z,58.70
2022-10-06T23:46:36.269Z,59.20
2022-10-06T23:49:36.888Z,59.80
2022-10-06T23:52:34.685Z,66.60
2022-10-06T23:55:13.912Z,64.50
2022-10-06T23:57:55.351Z,66.60
